createdAt,value
2022-10-23T00:01:12.469Z,96456.98
2022-10-23T00:03:38.970Z,96450.96
2022-10-23T00:06:05.712Z,96448.29
2022-10-23T00:08:32.279Z,96456.96
2022-10-23T00:10:58.860Z,96452.27
2022-10-23T00:13:25.593Z,96450.54
2022-10-23T00:18:19.275Z,96442.91
2022-10-23T00:20:45.849Z,96446.39
2022-10-23T00:23:12.604Z,96454.55
2022-10-23T00:25:39.192Z,96453.49
2022-10-23T00:28:05.932Z,96456.85
2022-10-23T00:30:32.503Z,96463.28
2022-10-23T00:32:59.276Z,96459.06
2022-10-23T00:35:25.855Z,96469.32
2022-10-23T00:37:52.529Z,96472.45
2022-10-23T00:40:19.745Z,96470.66
2022-10-23T00:42:46.353Z,96479.55
2022-10-23T00:45:21.805Z,96477.73
2022-10-23T00:47:49.409Z,96476.58
2022-10-23T00:50:17.349Z,96489.73
2022-10-23T00:52:48.474Z,96488.55
2022-10-23T00:55:16.860Z,96486.83
2022-10-23T00:57:46.046Z,96496.23
2022-10-23T01:00:16.677Z,96493.31
2022-10-23T01:02:43.594Z,96498.98
2022-10-23T01:05:10.875Z,96492.11
2022-10-23T01:07:50.299Z,96496.58
2022-10-23T01:10:31.526Z,96501.73
2022-10-23T01:13:19.316Z,96504.02
2022-10-23T01:15:57.328Z,96511.50
2022-10-23T01:18:31.361Z,96519.05
2022-10-23T01:21:21.680Z,96524.27
2022-10-23T01:24:24.572Z,96540.15
2022-10-23T01:27:14.873Z,96535.41
2022-10-23T01:29:49.224Z,96535.52
2022-10-23T01:32:28.596Z,96541.57
2022-10-23T01:35:08.350Z,96546.67
2022-10-23T01:37:47.845Z,96549.83
2022-10-23T01:40:24.644Z,96547.21
2022-10-23T01:42:54.594Z,96552.67
2022-10-23T01:45:33.690Z,96550.60
2022-10-23T01:48:02.453Z,96551.48
2022-10-23T01:50:31.370Z,96557.85
2022-10-23T01:53:03.975Z,96557.53
2022-10-23T01:55:32.518Z,96559.58
2022-10-23T01:58:03.912Z,96565.19
2022-10-23T02:00:40.040Z,96566.56
2022-10-23T02:03:08.628Z,96568.92
2022-10-23T02:05:35.574Z,96572.73
2022-10-23T02:08:03.038Z,96574.92
2022-10-23T02:10:39.336Z,96576.81
2022-10-23T02:13:23.949Z,96570.30
2022-10-23T02:16:05.403Z,96570.75
2022-10-23T02:19:07.869Z,96573.48
2022-10-23T02:21:53.454Z,96583.16
2022-10-23T02:24:30.967Z,96574.52
2022-10-23T02:27:03.614Z,96580.09
2022-10-23T02:29:38.266Z,96582.45
2022-10-23T02:32:08.698Z,96583.34
2022-10-23T02:34:35.618Z,96589.35
2022-10-23T02:37:02.937Z,96594.55
2022-10-23T02:39:29.904Z,96595.19
2022-10-23T02:42:14.314Z,96599.98
2022-10-23T02:44:55.266Z,96606.46
2022-10-23T02:47:54.744Z,96613.49
2022-10-23T02:50:30.932Z,96613.77
2022-10-23T02:53:17.723Z,96623.55
2022-10-23T02:56:01.532Z,96629.02
2022-10-23T02:58:36.007Z,96632.27
2022-10-23T03:01:08.776Z,96632.88
2022-10-23T03:03:41.959Z,96644.95
2022-10-23T03:06:09.103Z,96645.50
2022-10-23T03:08:49.457Z,96651.96
2022-10-23T03:11:18.247Z,96655.38
2022-10-23T03:13:44.921Z,96656.93
2022-10-23T03:16:14.094Z,96661.95
2022-10-23T03:18:41.022Z,96661.45
2022-10-23T03:21:08.291Z,96661.58
2022-10-23T03:23:35.115Z,96662.42
2022-10-23T03:26:02.570Z,96663.11
2022-10-23T03:28:34.887Z,96669.83
2022-10-23T03:31:02.610Z,96673.25
2022-10-23T03:33:31.287Z,96681.73
2022-10-23T03:36:05.564Z,96683.54
2022-10-23T03:38:32.559Z,96693.34
2022-10-23T03:40:59.113Z,96686.77
2022-10-23T03:43:27.994Z,96695.17
2022-10-23T03:45:56.919Z,96692.77
2022-10-23T03:48:25.407Z,96694.14
2022-10-23T03:50:52.159Z,96698.20
2022-10-23T03:53:19.038Z,96702.22
2022-10-23T03:55:45.938Z,96698.61
2022-10-23T03:58:12.542Z,96705.60
2022-10-23T04:00:39.272Z,96706.07
2022-10-23T04:03:06.601Z,96701.55
2022-10-23T04:05:37.137Z,96708.20
2022-10-23T04:08:03.888Z,96707.92
2022-10-23T04:10:32.583Z,96704.42
2022-10-23T04:12:59.342Z,96709.64
2022-10-23T04:15:27.485Z,96709.84
2022-10-23T04:17:54.409Z,96710.27
2022-10-23T04:20:21.179Z,96716.92
2022-10-23T04:22:47.830Z,96715.35
2022-10-23T04:25:15.959Z,96722.04
2022-10-23T04:27:43.117Z,96720.16
2022-10-23T04:30:11.398Z,96724.42
2022-10-23T04:32:38.374Z,96724.16
2022-10-23T04:35:06.005Z,96731.56
2022-10-23T04:37:32.554Z,96725.98
2022-10-23T04:39:59.863Z,96728.05
2022-10-23T04:44:54.220Z,96733.46
2022-10-23T04:47:20.776Z,96733.86
2022-10-23T04:49:56.203Z,96737.23
2022-10-23T04:52:33.084Z,96742.83
2022-10-23T04:55:20.299Z,96747.05
2022-10-23T04:58:06.793Z,96745.91
2022-10-23T05:00:33.599Z,96755.23
2022-10-23T05:03:00.897Z,96752.52
2022-10-23T05:05:33.671Z,96758.98
2022-10-23T05:08:06.361Z,96764.05
2022-10-23T05:10:42.721Z,96766.45
2022-10-23T05:13:12.916Z,96765.21
2022-10-23T05:15:40.376Z,96769.50
2022-10-23T05:18:14.514Z,96767.89
2022-10-23T05:20:42.157Z,96773.20
2022-10-23T05:23:12.662Z,96779.71
2022-10-23T05:25:40.439Z,96781.59
2022-10-23T05:28:15.127Z,96785.56
2022-10-23T05:30:42.269Z,96792.83
2022-10-23T05:33:11.076Z,96794.95
2022-10-23T05:35:43.738Z,96797.11
2022-10-23T05:38:12.518Z,96803.61
2022-10-23T05:43:08.363Z,96799.70
2022-10-23T05:45:46.467Z,96803.33
2022-10-23T05:48:34.639Z,96809.81
2022-10-23T05:51:21.569Z,96808.52
2022-10-23T05:54:00.914Z,96813.56
2022-10-23T05:56:32.664Z,96814.23
2022-10-23T05:59:09.652Z,96820.89
2022-10-23T06:01:47.749Z,96825.50
2022-10-23T06:04:18.185Z,96833.19
2022-10-23T06:06:56.376Z,96837.55
2022-10-23T06:09:23.134Z,96834.86
2022-10-23T06:11:53.447Z,96839.70
2022-10-23T06:14:20.737Z,96841.61
2022-10-23T06:16:48.269Z,96847.88
2022-10-23T06:19:14.787Z,96849.28
2022-10-23T06:21:41.640Z,96853.84
2022-10-23T06:24:09.493Z,96856.16
2022-10-23T06:26:48.565Z,96863.05
2022-10-23T06:29:20.696Z,96869.80
2022-10-23T06:31:47.438Z,96871.08
2022-10-23T06:34:14.183Z,96871.41
2022-10-23T06:36:41.431Z,96877.73
2022-10-23T06:39:27.283Z,96877.57
2022-10-23T06:42:04.382Z,96880.89
2022-10-23T06:44:50.830Z,96878.77
2022-10-23T06:47:28.319Z,96882.36
2022-10-23T06:50:15.649Z,96882.66
2022-10-23T06:52:47.801Z,96887.98
2022-10-23T06:55:17.716Z,96888.29
2022-10-23T06:57:44.841Z,96894.04
2022-10-23T07:00:12.693Z,96894.36
2022-10-23T07:02:45.751Z,96897.92
2022-10-23T07:05:13.892Z,96902.77
2022-10-23T07:07:41.227Z,96905.17
2022-10-23T07:10:09.507Z,96911.85
2022-10-23T07:12:41.620Z,96915.02
2022-10-23T07:15:23.809Z,96915.17
2022-10-23T07:17:50.588Z,96917.20
2022-10-23T07:20:17.488Z,96920.95
2022-10-23T07:22:52.369Z,96922.99
2022-10-23T07:25:26.730Z,96916.51
2022-10-23T07:27:55.131Z,96914.75
2022-10-23T07:30:22.358Z,96917.16
2022-10-23T07:32:51.703Z,96916.48
2022-10-23T07:35:39.436Z,96913.43
2022-10-23T07:38:15.257Z,96912.61
2022-10-23T07:40:44.948Z,96914.21
2022-10-23T07:43:13.895Z,96919.19
2022-10-23T07:45:40.694Z,96923.28
2022-10-23T07:48:14.799Z,96931.10
2022-10-23T07:51:02.372Z,96931.31
2022-10-23T07:53:30.405Z,96931.19
2022-10-23T07:56:04.491Z,96937.23
2022-10-23T07:58:53.520Z,96942.26
2022-10-23T08:01:29.539Z,96943.20
2022-10-23T08:03:56.223Z,96944.65
2022-10-23T08:06:23.270Z,96943.67
2022-10-23T08:08:50.197Z,96943.02
2022-10-23T08:11:24.165Z,96944.45
2022-10-23T08:13:53.778Z,96941.08
2022-10-23T08:16:21.735Z,96945.14
2022-10-23T08:19:08.426Z,96952.61
2022-10-23T08:21:37.711Z,96952.11
2022-10-23T08:24:04.942Z,96949.98
2022-10-23T08:26:31.959Z,96954.69
2022-10-23T08:28:59.862Z,96959.45
2022-10-23T08:31:27.628Z,96965.30
2022-10-23T08:34:09.738Z,96967.23
2022-10-23T08:36:38.601Z,96962.80
2022-10-23T08:39:06.977Z,96966.59
2022-10-23T08:41:42.123Z,96962.73
2022-10-23T08:44:29.087Z,96955.59
2022-10-23T08:47:11.938Z,96961.30
2022-10-23T08:49:56.023Z,96961.45
2022-10-23T08:52:38.835Z,96962.27
2022-10-23T08:55:29.416Z,96970.91
2022-10-23T08:58:04.983Z,96971.67
2022-10-23T09:00:32.328Z,96971.44
2022-10-23T09:03:04.983Z,96975.50
2022-10-23T09:05:45.015Z,96972.34
2022-10-23T09:08:25.196Z,96972.30
2022-10-23T09:11:02.114Z,96973.79
2022-10-23T09:14:04.985Z,96980.52
2022-10-23T09:17:05.155Z,96982.54
2022-10-23T09:19:32.519Z,96982.02
2022-10-23T09:21:59.806Z,96990.42
2022-10-23T09:24:30.926Z,96989.48
2022-10-23T09:26:59.978Z,96990.21
2022-10-23T09:29:32.427Z,96980.72
2022-10-23T09:32:00.818Z,96973.27
2022-10-23T09:34:30.257Z,96972.66
2022-10-23T09:37:00.588Z,96972.73
2022-10-23T09:39:31.618Z,96983.64
2022-10-23T09:42:01.895Z,96986.21
2022-10-23T09:44:31.676Z,96976.25
2022-10-23T09:47:11.457Z,96975.77
2022-10-23T09:49:46.161Z,96973.98
2022-10-23T09:52:35.711Z,96974.30
2022-10-23T09:55:20.120Z,96974.55
2022-10-23T09:57:47.516Z,96974.16
2022-10-23T10:00:19.464Z,96971.82
2022-10-23T10:03:00.220Z,96972.95
2022-10-23T10:05:55.292Z,96979.70
2022-10-23T10:08:34.735Z,96977.31
2022-10-23T10:11:22.899Z,96975.86
2022-10-23T10:14:04.748Z,96975.23
2022-10-23T10:16:53.865Z,96968.25
2022-10-23T10:19:38.940Z,96965.69
2022-10-23T10:22:26.483Z,96959.25
2022-10-23T10:25:29.307Z,96961.42
2022-10-23T10:28:19.290Z,96965.69
2022-10-23T10:31:09.928Z,96970.85
2022-10-23T10:33:55.452Z,96970.41
2022-10-23T10:36:41.315Z,96971.73
2022-10-23T10:39:24.540Z,96970.19
2022-10-23T10:42:06.015Z,96966.20
2022-10-23T10:44:48.406Z,96965.72
2022-10-23T10:47:25.500Z,96965.14
2022-10-23T10:50:06.816Z,96970.02
2022-10-23T10:52:58.309Z,96970.63
2022-10-23T10:55:44.420Z,96969.10
2022-10-23T10:58:27.508Z,96968.59
2022-10-23T11:00:58.501Z,96967.16
2022-10-23T11:03:39.015Z,96973.67
2022-10-23T11:06:14.484Z,96981.85
2022-10-23T11:08:56.193Z,96982.11
2022-10-23T11:11:35.695Z,96985.15
2022-10-23T11:14:03.035Z,96977.16
2022-10-23T11:16:41.257Z,96969.34
2022-10-23T11:19:33.496Z,96967.52
2022-10-23T11:22:09.697Z,96963.17
2022-10-23T11:24:49.069Z,96963.30
2022-10-23T11:27:44.565Z,96966.75
2022-10-23T11:30:27.424Z,96966.58
2022-10-23T11:33:30.443Z,96960.41
2022-10-23T11:36:06.425Z,96968.47
2022-10-23T11:38:36.103Z,96963.77
2022-10-23T11:41:06.312Z,96956.73
2022-10-23T11:43:46.373Z,96956.01
2022-10-23T11:46:28.748Z,96954.64
2022-10-23T11:48:58.245Z,96954.80
2022-10-23T11:51:35.614Z,96955.94
2022-10-23T11:54:23.684Z,96955.45
2022-10-23T11:57:16.489Z,96960.23
2022-10-23T11:59:56.441Z,96965.10
2022-10-23T12:02:37.685Z,96966.67
2022-10-23T12:05:17.229Z,96964.62
2022-10-23T12:07:45.612Z,96973.45
2022-10-23T12:10:26.651Z,96965.09
2022-10-23T12:12:59.370Z,96967.30
2022-10-23T12:15:27.064Z,96961.90
2022-10-23T12:18:07.202Z,96959.48
2022-10-23T12:20:43.820Z,96958.32
2022-10-23T12:23:38.449Z,96955.85
2022-10-23T12:26:25.882Z,96959.64
2022-10-23T12:29:16.930Z,96960.05
2022-10-23T12:32:07.238Z,96958.14
2022-10-23T12:34:49.826Z,96957.36
2022-10-23T12:37:39.234Z,96955.88
2022-10-23T12:40:08.058Z,96952.06
2022-10-23T12:42:35.197Z,96957.78
2022-10-23T12:45:23.195Z,96954.52
2022-10-23T12:47:51.279Z,96954.84
2022-10-23T12:50:20.876Z,96957.48
2022-10-23T12:52:53.835Z,96957.54
2022-10-23T12:55:21.986Z,96960.06
2022-10-23T12:57:49.303Z,96958.21
2022-10-23T13:00:19.872Z,96958.76
2022-10-23T13:03:04.554Z,96957.48
2022-10-23T13:05:31.958Z,96955.98
2022-10-23T13:08:01.404Z,96953.59
2022-10-23T13:10:38.857Z,96955.56
2022-10-23T13:13:07.689Z,96952.45
2022-10-23T13:15:43.515Z,96954.37
2022-10-23T13:18:13.576Z,96953.02
2022-10-23T13:20:55.231Z,96956.69
2022-10-23T13:23:31.438Z,96959.35
2022-10-23T13:25:59.822Z,96963.07
2022-10-23T13:28:42.025Z,96962.39
2022-10-23T13:31:31.573Z,96967.54
2022-10-23T13:34:06.730Z,96969.28
2022-10-23T13:36:36.239Z,96971.89
2022-10-23T13:39:14.499Z,96971.62
2022-10-23T13:41:45.527Z,96973.59
2022-10-23T13:44:14.491Z,96975.41
2022-10-23T13:46:41.676Z,96973.21
2022-10-23T13:49:08.876Z,96974.46
2022-10-23T13:51:42.599Z,96974.88
2022-10-23T13:54:15.113Z,96975.84
2022-10-23T13:56:41.795Z,96969.53
2022-10-23T13:59:10.589Z,96969.42
2022-10-23T14:01:37.706Z,96970.88
2022-10-23T14:04:05.498Z,96974.11
2022-10-23T14:06:33.164Z,96975.27
2022-10-23T14:09:02.567Z,96972.77
2022-10-23T14:11:29.099Z,96969.50
2022-10-23T14:13:55.547Z,96965.17
2022-10-23T14:16:23.263Z,96964.11
2022-10-23T14:18:49.851Z,96963.42
2022-10-23T14:21:19.426Z,96961.04
2022-10-23T14:23:47.308Z,96960.52
2022-10-23T14:26:20.220Z,96963.19
2022-10-23T14:28:46.951Z,96961.14
2022-10-23T14:31:16.231Z,96960.75
2022-10-23T14:33:44.403Z,96955.80
2022-10-23T14:36:12.240Z,96956.64
2022-10-23T14:38:38.996Z,96955.83
2022-10-23T14:41:14.717Z,96952.00
2022-10-23T14:43:42.534Z,96948.31
2022-10-23T14:46:14.447Z,96949.77
2022-10-23T14:48:45.477Z,96950.11
2022-10-23T14:51:22.115Z,96945.24
2022-10-23T14:53:58.710Z,96942.06
2022-10-23T14:56:27.003Z,96938.75
2022-10-23T14:58:54.599Z,96937.83
2022-10-23T15:01:21.393Z,96933.83
2022-10-23T15:03:54.328Z,96939.11
2022-10-23T15:06:21.107Z,96940.42
2022-10-23T15:08:50.599Z,96941.11
2022-10-23T15:11:17.611Z,96938.11
2022-10-23T15:13:44.303Z,96940.55
2022-10-23T15:16:11.540Z,96940.55
2022-10-23T15:21:06.652Z,96933.07
2022-10-23T15:23:34.841Z,96935.76
2022-10-23T15:26:05.088Z,96938.38
2022-10-23T15:28:34.007Z,96938.48
2022-10-23T15:31:01.535Z,96944.33
2022-10-23T15:33:28.374Z,96947.60
2022-10-23T15:35:55.907Z,96951.74
2022-10-23T15:38:23.965Z,96951.44
2022-10-23T15:40:53.028Z,96951.40
2022-10-23T15:43:19.670Z,96954.40
2022-10-23T15:45:47.023Z,96955.69
2022-10-23T15:48:13.592Z,96964.79
2022-10-23T15:50:40.429Z,96966.17
2022-10-23T15:53:07.069Z,96975.00
2022-10-23T15:55:33.706Z,96976.50
2022-10-23T15:58:09.699Z,96974.46
2022-10-23T16:00:37.522Z,96977.73
2022-10-23T16:03:05.300Z,96982.27
2022-10-23T16:05:31.921Z,96982.38
2022-10-23T16:07:58.560Z,96979.88
2022-10-23T16:10:25.187Z,96988.16
2022-10-23T16:12:51.949Z,96986.63
2022-10-23T16:15:18.563Z,96985.59
2022-10-23T16:17:45.642Z,96983.67
2022-10-23T16:20:15.473Z,96981.83
2022-10-23T16:22:44.198Z,96979.41
2022-10-23T16:25:11.650Z,96975.77
2022-10-23T16:27:38.237Z,96981.13
2022-10-23T16:30:08.405Z,96985.45
2022-10-23T16:32:35.859Z,96990.41
2022-10-23T16:35:02.406Z,96990.27
2022-10-23T16:37:38.214Z,96992.17
2022-10-23T16:40:10.404Z,96995.37
2022-10-23T16:42:47.938Z,96996.86
2022-10-23T16:45:23.789Z,96996.88
2022-10-23T16:47:50.497Z,97004.59
2022-10-23T16:50:17.187Z,97006.23
2022-10-23T16:52:44.202Z,97011.46
2022-10-23T16:55:11.067Z,97013.90
2022-10-23T16:57:37.508Z,97018.60
2022-10-23T17:00:05.378Z,97021.71
2022-10-23T17:02:34.652Z,97020.50
2022-10-23T17:05:01.181Z,97016.02
2022-10-23T17:07:27.644Z,97017.52
2022-10-23T17:09:54.098Z,97022.40
2022-10-23T17:12:20.504Z,97022.11
2022-10-23T17:14:47.069Z,97020.77
2022-10-23T17:17:13.671Z,97025.77
2022-10-23T17:19:45.482Z,97027.39
2022-10-23T17:22:13.705Z,97027.92
2022-10-23T17:24:42.150Z,97031.71
2022-10-23T17:27:09.204Z,97030.22
2022-10-23T17:29:35.834Z,97024.20
2022-10-23T17:32:03.408Z,97020.60
2022-10-23T17:34:29.969Z,97017.76
2022-10-23T17:36:57.124Z,97018.23
2022-10-23T17:39:28.238Z,97021.86
2022-10-23T17:41:55.596Z,97016.58
2022-10-23T17:44:22.360Z,97011.90
2022-10-23T17:46:52.789Z,97011.64
2022-10-23T17:49:19.968Z,97009.58
2022-10-23T17:51:52.000Z,97004.80
2022-10-23T17:54:18.685Z,97002.58
2022-10-23T17:56:45.481Z,97002.58
2022-10-23T17:59:13.917Z,97004.21
2022-10-23T18:01:44.328Z,97004.52
2022-10-23T18:04:10.915Z,97007.24
2022-10-23T18:06:43.689Z,97005.61
2022-10-23T18:09:11.357Z,97006.27
2022-10-23T18:11:45.208Z,97004.16
2022-10-23T18:14:13.710Z,96998.91
2022-10-23T18:16:40.317Z,96996.33
2022-10-23T18:19:07.917Z,96994.63
2022-10-23T18:21:35.284Z,96995.69
2022-10-23T18:24:02.633Z,96996.58
2022-10-23T18:26:31.535Z,96990.63
2022-10-23T18:28:59.097Z,96986.97
2022-10-23T18:31:29.505Z,96989.35
2022-10-23T18:33:58.081Z,96990.17
2022-10-23T18:36:40.035Z,96993.65
2022-10-23T18:39:08.776Z,96987.67
2022-10-23T18:41:38.559Z,96983.69
2022-10-23T18:44:06.614Z,96980.84
2022-10-23T18:46:33.653Z,96980.61
2022-10-23T18:49:00.144Z,96985.73
2022-10-23T18:51:29.814Z,96986.57
2022-10-23T18:53:59.428Z,96984.58
2022-10-23T18:56:27.137Z,96981.99
2022-10-23T18:58:56.034Z,96982.72
2022-10-23T19:01:24.312Z,96978.27
2022-10-23T19:03:51.018Z,96974.10
2022-10-23T19:06:18.946Z,96976.85
2022-10-23T19:08:46.461Z,96973.36
2022-10-23T19:11:15.253Z,96968.41
2022-10-23T19:13:42.329Z,96972.76
2022-10-23T19:16:17.537Z,96973.08
2022-10-23T19:18:48.385Z,96968.25
2022-10-23T19:21:18.404Z,96964.86
2022-10-23T19:23:45.726Z,96966.60
2022-10-23T19:26:12.893Z,96963.13
2022-10-23T19:28:43.236Z,96966.96
2022-10-23T19:31:10.673Z,96974.94
2022-10-23T19:33:38.462Z,96977.73
2022-10-23T19:36:07.910Z,96974.32
2022-10-23T19:38:39.528Z,96981.61
2022-10-23T19:41:06.051Z,96984.84
2022-10-23T19:43:32.598Z,96986.23
2022-10-23T19:46:03.928Z,96984.29
2022-10-23T19:48:33.055Z,96984.01
2022-10-23T19:50:59.581Z,96991.50
2022-10-23T19:53:26.305Z,96996.11
2022-10-23T19:56:02.331Z,96994.48
2022-10-23T19:58:29.325Z,96990.20
2022-10-23T20:00:56.152Z,96988.09
2022-10-23T20:03:23.279Z,96992.04
2022-10-23T20:05:49.889Z,96988.13
2022-10-23T20:08:16.416Z,96986.85
2022-10-23T20:10:45.265Z,96988.52
2022-10-23T20:13:20.458Z,96987.70
2022-10-23T20:15:48.578Z,96984.28
2022-10-23T20:18:15.212Z,96983.05
2022-10-23T20:20:41.979Z,96979.55
2022-10-23T20:23:08.853Z,96976.69
2022-10-23T20:25:35.357Z,96975.64
2022-10-23T20:28:02.399Z,96974.05
2022-10-23T20:30:28.990Z,96974.77
2022-10-23T20:32:55.667Z,96979.11
2022-10-23T20:35:22.750Z,96983.04
2022-10-23T20:37:49.355Z,96977.65
2022-10-23T20:40:16.258Z,96978.28
2022-10-23T20:42:42.826Z,96984.73
2022-10-23T20:45:09.955Z,96978.65
2022-10-23T20:47:36.511Z,96979.52
2022-10-23T20:50:03.286Z,96975.59
2022-10-23T20:54:58.275Z,96975.65
2022-10-23T20:57:24.798Z,96983.42
2022-10-23T20:59:52.581Z,96979.95
2022-10-23T21:02:19.306Z,96981.96
2022-10-23T21:04:46.948Z,96982.67
2022-10-23T21:07:13.510Z,96980.15
2022-10-23T21:09:40.105Z,96973.70
2022-10-23T21:12:07.719Z,96969.55
2022-10-23T21:14:35.276Z,96970.08
2022-10-23T21:17:02.366Z,96960.21
2022-10-23T21:19:28.862Z,96954.63
2022-10-23T21:21:55.452Z,96952.50
2022-10-23T21:24:23.338Z,96952.75
2022-10-23T21:26:51.172Z,96954.77
2022-10-23T21:29:19.393Z,96945.58
2022-10-23T21:31:55.617Z,96937.60
2022-10-23T21:34:24.050Z,96927.42
2022-10-23T21:37:12.527Z,96922.13
2022-10-23T21:39:37.893Z,96926.20
2022-10-23T21:42:04.658Z,96933.56
2022-10-23T21:44:31.092Z,96945.70
2022-10-23T21:46:57.624Z,96961.98
2022-10-23T21:49:24.296Z,96965.40
2022-10-23T21:51:50.753Z,96957.52
2022-10-23T21:54:17.188Z,96954.96
2022-10-23T21:56:46.608Z,96952.35
2022-10-23T21:59:16.019Z,96944.23
2022-10-23T22:01:45.307Z,96936.81
2022-10-23T22:04:13.894Z,96935.20
2022-10-23T22:06:42.225Z,96933.14
2022-10-23T22:09:13.342Z,96938.79
2022-10-23T22:11:40.796Z,96936.48
2022-10-23T22:14:07.296Z,96945.80
2022-10-23T22:16:33.786Z,96944.46
2022-10-23T22:19:00.288Z,96944.41
2022-10-23T22:21:28.757Z,96952.04
2022-10-23T22:23:57.310Z,96960.83
2022-10-23T22:26:29.090Z,96964.50
2022-10-23T22:28:59.147Z,96962.81
2022-10-23T22:31:29.386Z,96962.84
2022-10-23T22:33:56.450Z,96967.95
2022-10-23T22:36:24.400Z,96968.39
2022-10-23T22:38:51.446Z,96961.23
2022-10-23T22:41:18.329Z,96960.27
2022-10-23T22:43:45.078Z,96959.66
2022-10-23T22:46:14.902Z,96960.17
2022-10-23T22:48:42.218Z,96951.46
2022-10-23T22:51:11.464Z,96944.79
2022-10-23T22:53:37.994Z,96949.63
2022-10-23T22:56:07.822Z,96947.55
2022-10-23T22:58:35.157Z,96955.23
2022-10-23T23:01:07.616Z,96956.48
2022-10-23T23:03:36.308Z,96958.50
2022-10-23T23:06:05.631Z,96960.24
2022-10-23T23:08:33.614Z,96955.62
2022-10-23T23:11:00.681Z,96953.30
2022-10-23T23:13:28.934Z,96954.31
2022-10-23T23:15:56.420Z,96957.50
2022-10-23T23:18:23.704Z,96959.20
2022-10-23T23:20:50.465Z,96950.02
2022-10-23T23:23:18.092Z,96947.20
2022-10-23T23:25:48.148Z,96946.49
2022-10-23T23:28:17.586Z,96942.82
2022-10-23T23:33:11.806Z,96936.97
2022-10-23T23:35:42.597Z,96939.80
2022-10-23T23:38:10.359Z,96943.16
2022-10-23T23:40:37.756Z,96939.71
2022-10-23T23:43:04.676Z,96936.67
2022-10-23T23:45:31.469Z,96937.02
2022-10-23T23:47:58.818Z,96940.33
2022-10-23T23:50:27.229Z,96943.86
2022-10-23T23:52:54.145Z,96940.37
2022-10-23T23:55:20.864Z,96938.95
2022-10-23T23:57:47.615Z,96939.26
